Time,TemperatureF,DewpointF,PressureIn,WindDirection,WindDirectionDegrees,WindSpeedMPH,WindSpeedGustMPH,Humidity,HourlyPrecipIn,Conditions,Clouds,dailyrainin,SolarRadiationWatts/m^2,SoftwareType,DateUTC
2013-08-22 00:01:00,69.0,58.0,-100.00,WSW,244,3.0,11.0,68,0.00,,,0.00,0.000000,,2013-08-22 04:01:00,
2013-08-22 00:24:00,69.0,58.0,-100.00,WSW,244,3.0,11.0,68,0.00,,,0.00,0.000000,,2013-08-22 04:24:00,
2013-08-22 00:34:00,69.0,58.0,-100.00,WSW,244,3.0,11.0,68,0.00,,,0.00,0.000000,,2013-08-22 04:34:00,
2013-08-22 00:44:00,69.0,58.0,-100.00,WSW,244,3.0,11.0,68,0.00,,,0.00,0.000000,,2013-08-22 04:44:00,
2013-08-22 00:54:00,69.0,58.0,-100.00,WSW,244,3.0,11.0,68,0.00,,,0.00,0.000000,,2013-08-22 04:54:00,
2013-08-22 01:01:00,68.0,58.0,-100.00,West,278,2.0,13.0,70,-99.99,,,0.00,0.000000,,2013-08-22 05:01:00,
2013-08-22 01:23:00,68.0,58.0,-100.00,West,278,2.0,13.0,70,-99.99,,,0.00,0.000000,,2013-08-22 05:23:00,
2013-08-22 01:34:00,68.0,58.0,-100.00,West,278,2.0,13.0,70,-99.99,,,0.00,0.000000,,2013-08-22 05:34:00,
2013-08-22 01:43:00,68.0,58.0,-100.00,West,278,2.0,13.0,70,-99.99,,,0.00,0.000000,,2013-08-22 05:43:00,
2013-08-22 01:53:00,68.0,58.0,-100.00,West,278,2.0,13.0,70,-99.99,,,0.00,0.000000,,2013-08-22 05:53:00,
2013-08-22 02:01:00,60.0,57.0,-100.00,NNE,28,0.0,4.0,89,0.00,,,0.00,0.000000,,2013-08-22 06:01:00,
2013-08-22 02:42:00,60.0,57.0,-100.00,NNE,28,0.0,4.0,89,0.00,,,0.00,0.000000,,2013-08-22 06:42:00,
2013-08-22 02:52:00,60.0,57.0,-100.00,NNE,28,0.0,4.0,89,0.00,,,0.00,0.000000,,2013-08-22 06:52:00,
2013-08-22 03:01:00,62.0,57.0,-100.00,NW,310,2.0,8.0,83,0.00,,,0.00,0.000000,,2013-08-22 07:01:00,
2013-08-22 03:42:00,62.0,57.0,-100.00,NW,310,2.0,8.0,83,0.00,,,0.00,0.000000,,2013-08-22 07:42:00,
2013-08-22 03:53:00,62.0,57.0,-100.00,NW,310,2.0,8.0,83,0.00,,,0.00,0.000000,,2013-08-22 07:53:00,
2013-08-22 04:01:00,65.0,58.0,-100.00,West,268,1.0,9.0,78,0.00,,,-99.99,0.000000,,2013-08-22 08:01:00,
2013-08-22 04:23:00,65.0,58.0,-100.00,West,268,1.0,9.0,78,0.00,,,-99.99,0.000000,,2013-08-22 08:23:00,
2013-08-22 04:33:00,65.0,58.0,-100.00,West,268,1.0,9.0,78,0.00,,,-99.99,0.000000,,2013-08-22 08:33:00,
2013-08-22 04:43:00,65.0,58.0,-100.00,West,268,1.0,9.0,78,0.00,,,-99.99,0.000000,,2013-08-22 08:43:00,
2013-08-22 04:53:00,65.0,58.0,-100.00,West,268,1.0,9.0,78,0.00,,,-99.99,0.000000,,2013-08-22 08:53:00,
2013-08-22 06:01:00,62.0,57.0,-100.00,NNE,32,1.0,7.0,85,-99.99,,,0.00,0.000000,,2013-08-22 10:01:00,
2013-08-22 06:42:00,62.0,57.0,-100.00,NNE,32,1.0,7.0,85,-99.99,,,0.00,0.000000,,2013-08-22 10:42:00,
2013-08-22 09:01:00,73.0,59.0,-100.00,West,271,4.0,9.0,62,0.00,,,0.00,389.000000,,2013-08-22 13:01:00,
2013-08-22 09:42:00,73.0,59.0,-100.00,West,271,4.0,9.0,62,0.00,,,0.00,389.000000,,2013-08-22 13:42:00,
2013-08-22 09:52:00,73.0,59.0,-100.00,West,271,4.0,9.0,62,0.00,,,0.00,389.000000,,2013-08-22 13:52:00,
2013-08-22 10:01:00,75.0,59.0,-100.00,WSW,255,4.0,10.0,57,0.00,,,0.00,596.000000,,2013-08-22 14:01:00,
2013-08-22 10:42:00,75.0,59.0,-100.00,WSW,255,4.0,10.0,57,0.00,,,0.00,596.000000,,2013-08-22 14:42:00,
2013-08-22 10:52:00,75.0,59.0,-100.00,WSW,255,4.0,10.0,57,0.00,,,0.00,596.000000,,2013-08-22 14:52:00,
2013-08-22 11:01:00,78.0,61.0,-100.00,WSW,254,4.0,16.0,55,0.00,,,0.00,769.000000,,2013-08-22 15:01:00,
2013-08-22 11:43:00,78.0,61.0,-100.00,WSW,254,4.0,16.0,55,0.00,,,0.00,769.000000,,2013-08-22 15:43:00,
2013-08-22 11:55:00,78.0,61.0,-100.00,WSW,254,4.0,16.0,55,0.00,,,0.00,769.000000,,2013-08-22 15:55:00,
2013-08-22 12:01:00,78.0,61.0,-100.00,SW,225,2.0,16.0,56,0.00,,,0.00,709.000000,,2013-08-22 16:01:00,
2013-08-22 12:44:00,78.0,61.0,-100.00,SW,225,2.0,16.0,56,0.00,,,0.00,709.000000,,2013-08-22 16:44:00,
2013-08-22 12:54:00,78.0,61.0,-100.00,SW,225,2.0,16.0,56,0.00,,,0.00,709.000000,,2013-08-22 16:54:00,
2013-08-22 13:01:00,76.0,61.0,-100.00,West,266,4.0,11.0,59,0.00,,,0.00,395.000000,,2013-08-22 17:01:00,
2013-08-22 13:24:00,76.0,61.0,-100.00,West,266,4.0,11.0,59,0.00,,,0.00,395.000000,,2013-08-22 17:24:00,
2013-08-22 13:33:00,76.0,61.0,-100.00,West,266,4.0,11.0,59,0.00,,,0.00,395.000000,,2013-08-22 17:33:00,
2013-08-22 13:43:00,76.0,61.0,-100.00,West,266,4.0,11.0,59,0.00,,,0.00,395.000000,,2013-08-22 17:43:00,
2013-08-22 13:53:00,76.0,61.0,-100.00,West,266,4.0,11.0,59,0.00,,,0.00,395.000000,,2013-08-22 17:53:00,
2013-08-22 14:01:00,81.0,62.0,-100.00,SSW,212,4.0,13.0,52,0.00,,,0.00,689.000000,,2013-08-22 18:01:00,
2013-08-22 14:43:00,81.0,62.0,-100.00,SSW,212,4.0,13.0,52,0.00,,,0.00,689.000000,,2013-08-22 18:43:00,
2013-08-22 14:52:00,81.0,62.0,-100.00,SSW,212,4.0,13.0,52,0.00,,,0.00,689.000000,,2013-08-22 18:52:00,
2013-08-22 15:01:00,64.0,60.0,-100.00,West,276,11.0,21.0,87,0.28,,,0.28,312.000000,,2013-08-22 19:01:00,
2013-08-22 15:22:00,64.0,60.0,-100.00,West,276,11.0,21.0,87,0.28,,,0.28,312.000000,,2013-08-22 19:22:00,
2013-08-22 15:33:00,64.0,60.0,-100.00,West,276,11.0,21.0,87,0.28,,,0.28,312.000000,,2013-08-22 19:33:00,
2013-08-22 15:42:00,64.0,60.0,-100.00,West,276,11.0,21.0,87,0.28,,,0.28,312.000000,,2013-08-22 19:42:00,
2013-08-22 15:53:00,64.0,60.0,-100.00,West,276,11.0,21.0,87,0.28,,,0.28,312.000000,,2013-08-22 19:53:00,
2013-08-22 16:01:00,66.0,63.0,-100.00,WNW,288,3.0,10.0,90,0.02,,,0.30,122.000000,,2013-08-22 20:01:00,
2013-08-22 16:23:00,66.0,63.0,-100.00,WNW,288,3.0,10.0,90,0.02,,,0.30,122.000000,,2013-08-22 20:23:00,
2013-08-22 16:32:00,66.0,63.0,-100.00,WNW,288,3.0,10.0,90,0.02,,,0.30,122.000000,,2013-08-22 20:32:00,
2013-08-22 16:42:00,66.0,63.0,-100.00,WNW,288,3.0,10.0,90,0.02,,,0.30,122.000000,,2013-08-22 20:42:00,
2013-08-22 16:52:00,66.0,63.0,-100.00,WNW,288,3.0,10.0,90,0.02,,,0.30,122.000000,,2013-08-22 20:52:00,
2013-08-22 17:01:00,66.0,62.0,-100.00,WSW,247,0.0,7.0,88,0.01,,,0.31,166.000000,,2013-08-22 21:01:00,
2013-08-22 17:22:00,66.0,62.0,-100.00,WSW,247,0.0,7.0,88,0.01,,,0.31,166.000000,,2013-08-22 21:22:00,
2013-08-22 17:34:00,66.0,62.0,-100.00,WSW,247,0.0,7.0,88,0.01,,,0.31,166.000000,,2013-08-22 21:34:00,
2013-08-22 17:44:00,66.0,62.0,-100.00,WSW,247,0.0,7.0,88,0.01,,,0.31,166.000000,,2013-08-22 21:44:00,
2013-08-22 17:54:00,66.0,62.0,-100.00,WSW,247,0.0,7.0,88,0.01,,,0.31,166.000000,,2013-08-22 21:54:00,
2013-08-22 18:01:00,64.0,61.0,-100.00,WNW,291,4.0,8.0,89,0.02,,,0.33,124.000000,,2013-08-22 22:01:00,
2013-08-22 18:25:00,64.0,61.0,-100.00,WNW,291,4.0,8.0,89,0.02,,,0.33,124.000000,,2013-08-22 22:25:00,
2013-08-22 18:34:00,64.0,61.0,-100.00,WNW,291,4.0,8.0,89,0.02,,,0.33,124.000000,,2013-08-22 22:34:00,
2013-08-22 18:42:00,64.0,61.0,-100.00,WNW,291,4.0,8.0,89,0.02,,,0.33,124.000000,,2013-08-22 22:42:00,
2013-08-22 18:53:00,64.0,61.0,-100.00,WNW,291,4.0,8.0,89,0.02,,,0.33,124.000000,,2013-08-22 22:53:00,
2013-08-22 19:01:00,63.0,61.0,-100.00,West,279,3.0,9.0,92,0.00,,,0.33,37.000000,,2013-08-22 23:01:00,
2013-08-22 19:23:00,63.0,61.0,-100.00,West,279,3.0,9.0,92,0.00,,,0.33,37.000000,,2013-08-22 23:23:00,
2013-08-22 19:33:00,63.0,61.0,-100.00,West,279,3.0,9.0,92,0.00,,,0.33,37.000000,,2013-08-22 23:33:00,
2013-08-22 19:42:00,63.0,61.0,-100.00,West,279,3.0,9.0,92,0.00,,,0.33,37.000000,,2013-08-22 23:42:00,
2013-08-22 19:53:00,63.0,61.0,-100.00,West,279,3.0,9.0,92,0.00,,,0.33,37.000000,,2013-08-22 23:53:00,
2013-08-22 20:01:00,62.0,61.0,-100.00,WNW,294,1.0,4.0,96,0.00,,,0.33,5.000000,,2013-08-23 00:01:00,
2013-08-22 20:23:00,62.0,61.0,-100.00,WNW,294,1.0,4.0,96,0.00,,,0.33,5.000000,,2013-08-23 00:23:00,
2013-08-22 20:33:00,62.0,61.0,-100.00,WNW,294,1.0,4.0,96,0.00,,,0.33,5.000000,,2013-08-23 00:33:00,
2013-08-22 20:42:00,62.0,61.0,-100.00,WNW,294,1.0,4.0,96,0.00,,,0.33,5.000000,,2013-08-23 00:42:00,
2013-08-22 20:52:00,62.0,61.0,-100.00,WNW,294,1.0,4.0,96,0.00,,,0.33,5.000000,,2013-08-23 00:52:00,
2013-08-22 21:01:00,62.0,61.0,-100.00,WNW,292,0.0,3.0,96,0.00,,,0.33,0.000000,,2013-08-23 01:01:00,
2013-08-22 21:22:00,62.0,61.0,-100.00,WNW,292,0.0,3.0,96,0.00,,,0.33,0.000000,,2013-08-23 01:22:00,
2013-08-22 21:33:00,62.0,61.0,-100.00,WNW,292,0.0,3.0,96,0.00,,,0.33,0.000000,,2013-08-23 01:33:00,
2013-08-22 21:42:00,62.0,61.0,-100.00,WNW,292,0.0,3.0,96,0.00,,,0.33,0.000000,,2013-08-23 01:42:00,
2013-08-22 21:52:00,62.0,61.0,-100.00,WNW,292,0.0,3.0,96,0.00,,,0.33,0.000000,,2013-08-23 01:52:00,
2013-08-22 22:01:00,62.0,61.0,-100.00,West,273,4.0,7.0,96,0.00,,,0.33,0.000000,,2013-08-23 02:01:00,
2013-08-22 22:23:00,62.0,61.0,-100.00,West,273,4.0,7.0,96,0.00,,,0.33,0.000000,,2013-08-23 02:23:00,
2013-08-22 22:33:00,62.0,61.0,-100.00,West,273,4.0,7.0,96,0.00,,,0.33,0.000000,,2013-08-23 02:33:00,
2013-08-22 22:43:00,62.0,61.0,-100.00,West,273,4.0,7.0,96,0.00,,,0.33,0.000000,,2013-08-23 02:43:00,
2013-08-22 22:52:00,62.0,61.0,-100.00,West,273,4.0,7.0,96,0.00,,,0.33,0.000000,,2013-08-23 02:52:00,
2013-08-22 23:01:00,62.0,61.0,-100.00,West,271,4.0,9.0,95,0.02,,,0.35,0.000000,,2013-08-23 03:01:00,
2013-08-22 23:44:00,62.0,61.0,-100.00,West,271,4.0,9.0,95,0.02,,,0.35,0.000000,,2013-08-23 03:44:00,
2013-08-22 23:55:00,62.0,61.0,-100.00,West,271,4.0,9.0,95,0.02,,,0.35,0.000000,,2013-08-23 03:55:00,